sensor_id;sensor_type;location;lat;lon;timestamp;P1;durP1;ratioP1;P2;durP2;ratioP2
59273;SDS011;45044;41.572;24.730;2022-08-02T00:00:07;8.75;;;7.85;;
59273;SDS011;45044;41.572;24.730;2022-08-02T00:02:35;8.65;;;7.20;;
59273;SDS011;45044;41.572;24.730;2022-08-02T00:05:02;9.40;;;7.45;;
59273;SDS011;45044;41.572;24.730;2022-08-02T00:07:30;8.68;;;7.78;;
59273;SDS011;45044;41.572;24.730;2022-08-02T00:09:56;7.93;;;7.00;;
59273;SDS011;45044;41.572;24.730;2022-08-02T00:12:23;9.20;;;8.30;;
59273;SDS011;45044;41.572;24.730;2022-08-02T00:14:50;8.60;;;7.80;;
59273;SDS011;45044;41.572;24.730;2022-08-02T00:17:17;8.77;;;7.88;;
59273;SDS011;45044;41.572;24.730;2022-08-02T00:19:44;8.35;;;7.55;;
59273;SDS011;45044;41.572;24.730;2022-08-02T00:22:11;8.48;;;7.68;;
59273;SDS011;45044;41.572;24.730;2022-08-02T00:24:39;8.50;;;7.28;;
59273;SDS011;45044;41.572;24.730;2022-08-02T00:27:05;7.70;;;6.90;;
59273;SDS011;45044;41.572;24.730;2022-08-02T00:29:35;9.30;;;8.40;;
59273;SDS011;45044;41.572;24.730;2022-08-02T00:32:18;9.75;;;7.90;;
59273;SDS011;45044;41.572;24.730;2022-08-02T00:34:44;8.55;;;7.57;;
59273;SDS011;45044;41.572;24.730;2022-08-02T00:37:11;8.85;;;7.97;;
59273;SDS011;45044;41.572;24.730;2022-08-02T00:39:38;9.82;;;8.80;;
59273;SDS011;45044;41.572;24.730;2022-08-02T00:42:05;9.18;;;8.20;;
59273;SDS011;45044;41.572;24.730;2022-08-02T00:44:33;8.38;;;7.57;;
59273;SDS011;45044;41.572;24.730;2022-08-02T00:46:59;9.32;;;8.43;;
59273;SDS011;45044;41.572;24.730;2022-08-02T00:49:26;8.65;;;7.75;;
59273;SDS011;45044;41.572;24.730;2022-08-02T00:51:53;8.55;;;7.53;;
59273;SDS011;45044;41.572;24.730;2022-08-02T00:54:20;7.97;;;7.18;;
59273;SDS011;45044;41.572;24.730;2022-08-02T00:56:47;10.77;;;8.70;;
59273;SDS011;45044;41.572;24.730;2022-08-02T00:59:16;8.43;;;7.53;;
59273;SDS011;45044;41.572;24.730;2022-08-02T01:01:43;8.73;;;7.93;;
59273;SDS011;45044;41.572;24.730;2022-08-02T01:04:26;9.52;;;8.25;;
59273;SDS011;45044;41.572;24.730;2022-08-02T01:06:57;11.45;;;8.80;;
59273;SDS011;45044;41.572;24.730;2022-08-02T01:09:25;9.10;;;8.20;;
59273;SDS011;45044;41.572;24.730;2022-08-02T01:11:52;9.02;;;8.13;;
59273;SDS011;45044;41.572;24.730;2022-08-02T01:14:19;9.45;;;7.63;;
59273;SDS011;45044;41.572;24.730;2022-08-02T01:21:59;9.77;;;7.85;;
59273;SDS011;45044;41.572;24.730;2022-08-02T01:30:30;8.50;;;7.63;;
59273;SDS011;45044;41.572;24.730;2022-08-02T01:33:00;8.98;;;8.07;;
59273;SDS011;45044;41.572;24.730;2022-08-02T01:35:32;8.90;;;7.10;;
59273;SDS011;45044;41.572;24.730;2022-08-02T01:38:26;9.07;;;7.32;;
59273;SDS011;45044;41.572;24.730;2022-08-02T01:40:57;8.25;;;7.10;;
59273;SDS011;45044;41.572;24.730;2022-08-02T01:43:27;8.48;;;7.22;;
59273;SDS011;45044;41.572;24.730;2022-08-02T01:45:55;7.57;;;6.55;;
59273;SDS011;45044;41.572;24.730;2022-08-02T01:48:25;7.47;;;6.68;;
59273;SDS011;45044;41.572;24.730;2022-08-02T01:50:54;8.27;;;6.68;;
59273;SDS011;45044;41.572;24.730;2022-08-02T01:53:22;7.88;;;7.07;;
59273;SDS011;45044;41.572;24.730;2022-08-02T01:55:52;8.63;;;6.63;;
59273;SDS011;45044;41.572;24.730;2022-08-02T01:58:24;8.45;;;7.38;;
59273;SDS011;45044;41.572;24.730;2022-08-02T02:00:54;7.97;;;6.80;;
59273;SDS011;45044;41.572;24.730;2022-08-02T02:03:23;7.97;;;6.75;;
59273;SDS011;45044;41.572;24.730;2022-08-02T02:05:52;9.18;;;6.80;;
59273;SDS011;45044;41.572;24.730;2022-08-02T02:08:57;7.00;;;6.18;;
59273;SDS011;45044;41.572;24.730;2022-08-02T02:11:17;7.60;;;5.88;;
59273;SDS011;45044;41.572;24.730;2022-08-02T02:14:03;6.95;;;6.10;;
59273;SDS011;45044;41.572;24.730;2022-08-02T02:16:33;7.45;;;6.10;;
59273;SDS011;45044;41.572;24.730;2022-08-02T02:19:00;7.63;;;6.50;;
59273;SDS011;45044;41.572;24.730;2022-08-02T02:21:28;6.70;;;5.75;;
59273;SDS011;45044;41.572;24.730;2022-08-02T02:23:57;8.75;;;5.97;;
59273;SDS011;45044;41.572;24.730;2022-08-02T02:26:25;8.05;;;6.32;;
59273;SDS011;45044;41.572;24.730;2022-08-02T02:28:58;6.88;;;6.10;;
59273;SDS011;45044;41.572;24.730;2022-08-02T02:31:28;8.38;;;6.93;;
59273;SDS011;45044;41.572;24.730;2022-08-02T02:34:13;8.43;;;6.43;;
59273;SDS011;45044;41.572;24.730;2022-08-02T02:36:46;8.32;;;6.63;;
59273;SDS011;45044;41.572;24.730;2022-08-02T02:39:16;8.30;;;6.28;;
59273;SDS011;45044;41.572;24.730;2022-08-02T02:41:48;8.00;;;6.68;;
59273;SDS011;45044;41.572;24.730;2022-08-02T02:44:18;7.88;;;6.03;;
59273;SDS011;45044;41.572;24.730;2022-08-02T02:46:50;9.60;;;7.05;;
59273;SDS011;45044;41.572;24.730;2022-08-02T02:49:19;8.07;;;6.78;;
59273;SDS011;45044;41.572;24.730;2022-08-02T02:51:47;8.25;;;6.95;;
59273;SDS011;45044;41.572;24.730;2022-08-02T02:54:15;9.25;;;6.80;;
59273;SDS011;45044;41.572;24.730;2022-08-02T02:57:00;9.65;;;6.82;;
59273;SDS011;45044;41.572;24.730;2022-08-02T02:59:29;7.93;;;6.30;;
59273;SDS011;45044;41.572;24.730;2022-08-02T03:01:58;7.07;;;6.25;;
59273;SDS011;45044;41.572;24.730;2022-08-02T03:04:28;8.50;;;6.28;;
59273;SDS011;45044;41.572;24.730;2022-08-02T03:07:16;7.70;;;6.85;;
59273;SDS011;45044;41.572;24.730;2022-08-02T03:09:43;8.10;;;6.65;;
59273;SDS011;45044;41.572;24.730;2022-08-02T03:12:12;7.03;;;5.60;;
59273;SDS011;45044;41.572;24.730;2022-08-02T03:14:45;6.78;;;5.70;;
59273;SDS011;45044;41.572;24.730;2022-08-02T03:17:14;7.53;;;5.28;;
59273;SDS011;45044;41.572;24.730;2022-08-02T03:19:41;7.00;;;5.68;;
59273;SDS011;45044;41.572;24.730;2022-08-02T03:22:10;8.82;;;5.55;;
59273;SDS011;45044;41.572;24.730;2022-08-02T03:24:37;6.25;;;5.22;;
59273;SDS011;45044;41.572;24.730;2022-08-02T03:27:04;7.97;;;5.47;;
59273;SDS011;45044;41.572;24.730;2022-08-02T03:29:30;7.00;;;5.90;;
59273;SDS011;45044;41.572;24.730;2022-08-02T03:32:00;7.18;;;5.50;;
59273;SDS011;45044;41.572;24.730;2022-08-02T03:34:27;10.15;;;6.88;;
59273;SDS011;45044;41.572;24.730;2022-08-02T03:36:54;7.30;;;5.57;;
59273;SDS011;45044;41.572;24.730;2022-08-02T03:39:22;7.20;;;6.00;;
59273;SDS011;45044;41.572;24.730;2022-08-02T03:41:51;8.88;;;5.68;;
59273;SDS011;45044;41.572;24.730;2022-08-02T03:44:19;7.32;;;5.57;;
59273;SDS011;45044;41.572;24.730;2022-08-02T03:46:46;8.93;;;6.50;;
59273;SDS011;45044;41.572;24.730;2022-08-02T03:49:15;8.52;;;6.38;;
59273;SDS011;45044;41.572;24.730;2022-08-02T03:51:44;9.02;;;7.28;;
59273;SDS011;45044;41.572;24.730;2022-08-02T03:54:11;9.18;;;7.10;;
59273;SDS011;45044;41.572;24.730;2022-08-02T03:56:39;9.13;;;7.47;;
59273;SDS011;45044;41.572;24.730;2022-08-02T03:59:11;9.38;;;7.40;;
59273;SDS011;45044;41.572;24.730;2022-08-02T04:01:39;8.68;;;6.57;;
59273;SDS011;45044;41.572;24.730;2022-08-02T04:04:06;9.57;;;7.72;;
59273;SDS011;45044;41.572;24.730;2022-08-02T04:06:33;8.13;;;7.00;;
59273;SDS011;45044;41.572;24.730;2022-08-02T04:09:05;8.10;;;7.07;;
59273;SDS011;45044;41.572;24.730;2022-08-02T04:11:32;8.27;;;6.85;;
59273;SDS011;45044;41.572;24.730;2022-08-02T04:14:06;9.10;;;7.63;;
59273;SDS011;45044;41.572;24.730;2022-08-02T04:16:41;8.88;;;7.35;;
59273;SDS011;45044;41.572;24.730;2022-08-02T04:19:12;8.10;;;6.72;;
59273;SDS011;45044;41.572;24.730;2022-08-02T04:21:42;9.32;;;7.57;;
59273;SDS011;45044;41.572;24.730;2022-08-02T04:24:27;10.05;;;7.25;;
59273;SDS011;45044;41.572;24.730;2022-08-02T04:27:00;8.60;;;7.65;;
59273;SDS011;45044;41.572;24.730;2022-08-02T04:29:48;10.45;;;7.28;;
59273;SDS011;45044;41.572;24.730;2022-08-02T04:32:16;8.48;;;7.00;;
59273;SDS011;45044;41.572;24.730;2022-08-02T04:34:44;7.90;;;6.70;;
59273;SDS011;45044;41.572;24.730;2022-08-02T04:37:31;9.88;;;7.43;;
59273;SDS011;45044;41.572;24.730;2022-08-02T04:39:59;8.68;;;6.78;;
59273;SDS011;45044;41.572;24.730;2022-08-02T04:42:26;6.65;;;4.82;;
59273;SDS011;45044;41.572;24.730;2022-08-02T04:44:52;7.40;;;6.15;;
59273;SDS011;45044;41.572;24.730;2022-08-02T04:47:19;9.05;;;6.57;;
59273;SDS011;45044;41.572;24.730;2022-08-02T04:50:07;7.63;;;6.13;;
59273;SDS011;45044;41.572;24.730;2022-08-02T04:52:36;8.70;;;6.88;;
59273;SDS011;45044;41.572;24.730;2022-08-02T04:55:06;8.02;;;6.43;;
59273;SDS011;45044;41.572;24.730;2022-08-02T04:57:33;6.85;;;6.05;;
59273;SDS011;45044;41.572;24.730;2022-08-02T05:00:19;6.05;;;5.20;;
59273;SDS011;45044;41.572;24.730;2022-08-02T05:02:46;6.07;;;4.78;;
59273;SDS011;45044;41.572;24.730;2022-08-02T05:05:14;5.90;;;5.30;;
59273;SDS011;45044;41.572;24.730;2022-08-02T05:07:41;5.85;;;4.35;;
59273;SDS011;45044;41.572;24.730;2022-08-02T05:10:08;5.68;;;4.60;;
59273;SDS011;45044;41.572;24.730;2022-08-02T05:12:39;6.38;;;4.55;;
59273;SDS011;45044;41.572;24.730;2022-08-02T05:15:07;8.52;;;7.72;;
59273;SDS011;45044;41.572;24.730;2022-08-02T05:17:38;4.95;;;3.97;;
59273;SDS011;45044;41.572;24.730;2022-08-02T05:20:14;4.47;;;3.75;;
59273;SDS011;45044;41.572;24.730;2022-08-02T05:22:44;5.00;;;3.85;;
59273;SDS011;45044;41.572;24.730;2022-08-02T05:25:12;5.10;;;3.67;;
59273;SDS011;45044;41.572;24.730;2022-08-02T05:27:41;5.43;;;3.53;;
59273;SDS011;45044;41.572;24.730;2022-08-02T05:30:08;4.82;;;3.38;;
59273;SDS011;45044;41.572;24.730;2022-08-02T05:32:44;4.05;;;3.42;;
59273;SDS011;45044;41.572;24.730;2022-08-02T05:35:16;3.70;;;3.35;;
59273;SDS011;45044;41.572;24.730;2022-08-02T05:37:44;4.10;;;3.30;;
59273;SDS011;45044;41.572;24.730;2022-08-02T05:40:13;4.20;;;3.42;;
59273;SDS011;45044;41.572;24.730;2022-08-02T05:42:41;4.05;;;3.10;;
59273;SDS011;45044;41.572;24.730;2022-08-02T05:45:09;3.42;;;2.83;;
59273;SDS011;45044;41.572;24.730;2022-08-02T05:47:39;4.43;;;3.40;;
59273;SDS011;45044;41.572;24.730;2022-08-02T05:50:07;4.30;;;2.92;;
59273;SDS011;45044;41.572;24.730;2022-08-02T05:55:21;5.03;;;2.80;;
59273;SDS011;45044;41.572;24.730;2022-08-02T05:57:57;6.28;;;2.95;;
59273;SDS011;45044;41.572;24.730;2022-08-02T06:00:34;3.83;;;2.33;;
59273;SDS011;45044;41.572;24.730;2022-08-02T06:05:53;6.53;;;2.63;;
59273;SDS011;45044;41.572;24.730;2022-08-02T06:08:21;3.53;;;2.35;;
59273;SDS011;45044;41.572;24.730;2022-08-02T06:10:55;4.30;;;2.53;;
59273;SDS011;45044;41.572;24.730;2022-08-02T06:13:26;6.65;;;3.10;;
59273;SDS011;45044;41.572;24.730;2022-08-02T06:15:53;3.45;;;1.75;;
59273;SDS011;45044;41.572;24.730;2022-08-02T06:18:28;3.63;;;2.13;;
59273;SDS011;45044;41.572;24.730;2022-08-02T06:20:57;4.75;;;2.80;;
59273;SDS011;45044;41.572;24.730;2022-08-02T06:23:46;2.05;;;1.33;;
59273;SDS011;45044;41.572;24.730;2022-08-02T06:26:25;3.88;;;2.10;;
59273;SDS011;45044;41.572;24.730;2022-08-02T06:28:53;9.13;;;5.88;;
59273;SDS011;45044;41.572;24.730;2022-08-02T06:31:21;2.60;;;1.52;;
59273;SDS011;45044;41.572;24.730;2022-08-02T06:33:48;2.55;;;1.13;;
59273;SDS011;45044;41.572;24.730;2022-08-02T06:36:18;2.03;;;1.13;;
59273;SDS011;45044;41.572;24.730;2022-08-02T06:41:37;4.30;;;1.60;;
59273;SDS011;45044;41.572;24.730;2022-08-02T06:44:08;2.10;;;1.20;;
59273;SDS011;45044;41.572;24.730;2022-08-02T06:46:56;1.95;;;1.23;;
59273;SDS011;45044;41.572;24.730;2022-08-02T06:49:38;2.53;;;1.48;;
59273;SDS011;45044;41.572;24.730;2022-08-02T06:52:28;2.15;;;1.75;;
59273;SDS011;45044;41.572;24.730;2022-08-02T06:54:59;1.83;;;1.40;;
59273;SDS011;45044;41.572;24.730;2022-08-02T06:57:26;2.35;;;1.70;;
59273;SDS011;45044;41.572;24.730;2022-08-02T06:59:54;2.65;;;1.75;;
59273;SDS011;45044;41.572;24.730;2022-08-02T07:02:22;2.10;;;1.60;;
59273;SDS011;45044;41.572;24.730;2022-08-02T07:04:50;2.47;;;1.40;;
59273;SDS011;45044;41.572;24.730;2022-08-02T07:07:17;3.25;;;1.95;;
59273;SDS011;45044;41.572;24.730;2022-08-02T07:09:43;4.32;;;2.00;;
59273;SDS011;45044;41.572;24.730;2022-08-02T07:12:26;2.38;;;2.03;;
59273;SDS011;45044;41.572;24.730;2022-08-02T07:14:55;3.08;;;1.73;;
59273;SDS011;45044;41.572;24.730;2022-08-02T07:17:22;2.17;;;1.23;;
59273;SDS011;45044;41.572;24.730;2022-08-02T07:19:49;1.73;;;1.55;;
59273;SDS011;45044;41.572;24.730;2022-08-02T07:22:15;1.38;;;1.27;;
59273;SDS011;45044;41.572;24.730;2022-08-02T07:24:44;1.63;;;1.30;;
59273;SDS011;45044;41.572;24.730;2022-08-02T07:27:12;3.28;;;1.50;;
59273;SDS011;45044;41.572;24.730;2022-08-02T07:29:39;2.08;;;1.25;;
59273;SDS011;45044;41.572;24.730;2022-08-02T07:32:19;2.70;;;1.35;;
59273;SDS011;45044;41.572;24.730;2022-08-02T07:34:48;1.45;;;1.35;;
59273;SDS011;45044;41.572;24.730;2022-08-02T07:37:21;1.63;;;1.27;;
59273;SDS011;45044;41.572;24.730;2022-08-02T07:40:09;3.05;;;1.42;;
59273;SDS011;45044;41.572;24.730;2022-08-02T07:42:40;1.40;;;1.20;;
59273;SDS011;45044;41.572;24.730;2022-08-02T07:45:08;1.75;;;1.27;;
59273;SDS011;45044;41.572;24.730;2022-08-02T07:47:37;1.25;;;1.05;;
59273;SDS011;45044;41.572;24.730;2022-08-02T07:50:09;1.30;;;1.10;;
59273;SDS011;45044;41.572;24.730;2022-08-02T07:52:38;2.25;;;1.30;;
59273;SDS011;45044;41.572;24.730;2022-08-02T07:55:07;1.30;;;1.20;;
59273;SDS011;45044;41.572;24.730;2022-08-02T07:57:35;2.33;;;1.20;;
59273;SDS011;45044;41.572;24.730;2022-08-02T08:00:09;1.67;;;1.27;;
59273;SDS011;45044;41.572;24.730;2022-08-02T08:02:36;2.10;;;1.52;;
59273;SDS011;45044;41.572;24.730;2022-08-02T08:05:03;1.30;;;1.20;;
59273;SDS011;45044;41.572;24.730;2022-08-02T08:07:32;1.92;;;1.35;;
59273;SDS011;45044;41.572;24.730;2022-08-02T08:10:02;4.00;;;1.58;;
59273;SDS011;45044;41.572;24.730;2022-08-02T08:12:32;1.80;;;1.20;;
59273;SDS011;45044;41.572;24.730;2022-08-02T08:14:58;2.58;;;1.27;;
59273;SDS011;45044;41.572;24.730;2022-08-02T08:17:25;1.98;;;1.45;;
59273;SDS011;45044;41.572;24.730;2022-08-02T08:19:55;1.63;;;1.23;;
59273;SDS011;45044;41.572;24.730;2022-08-02T08:22:23;1.30;;;1.20;;
59273;SDS011;45044;41.572;24.730;2022-08-02T08:24:49;1.33;;;1.13;;
59273;SDS011;45044;41.572;24.730;2022-08-02T08:27:17;1.70;;;1.27;;
59273;SDS011;45044;41.572;24.730;2022-08-02T08:29:44;1.52;;;1.20;;
59273;SDS011;45044;41.572;24.730;2022-08-02T08:32:11;1.40;;;1.30;;
59273;SDS011;45044;41.572;24.730;2022-08-02T08:34:44;2.05;;;1.50;;
59273;SDS011;45044;41.572;24.730;2022-08-02T08:37:13;2.28;;;1.33;;
59273;SDS011;45044;41.572;24.730;2022-08-02T08:39:47;2.08;;;1.42;;
59273;SDS011;45044;41.572;24.730;2022-08-02T08:42:23;2.72;;;1.55;;
59273;SDS011;45044;41.572;24.730;2022-08-02T08:44:50;2.15;;;1.55;;
59273;SDS011;45044;41.572;24.730;2022-08-02T08:47:16;1.23;;;1.13;;
59273;SDS011;45044;41.572;24.730;2022-08-02T08:49:46;1.75;;;1.30;;
59273;SDS011;45044;41.572;24.730;2022-08-02T08:52:19;1.65;;;1.40;;
59273;SDS011;45044;41.572;24.730;2022-08-02T08:54:55;1.83;;;1.40;;
59273;SDS011;45044;41.572;24.730;2022-08-02T08:57:25;2.15;;;1.15;;
59273;SDS011;45044;41.572;24.730;2022-08-02T08:59:58;1.77;;;1.33;;
59273;SDS011;45044;41.572;24.730;2022-08-02T09:02:25;2.65;;;1.23;;
59273;SDS011;45044;41.572;24.730;2022-08-02T09:04:53;2.70;;;1.35;;
59273;SDS011;45044;41.572;24.730;2022-08-02T09:07:23;3.08;;;1.33;;
59273;SDS011;45044;41.572;24.730;2022-08-02T09:09:50;1.75;;;1.40;;
59273;SDS011;45044;41.572;24.730;2022-08-02T09:12:17;1.90;;;1.60;;
59273;SDS011;45044;41.572;24.730;2022-08-02T09:14:47;3.40;;;1.55;;
59273;SDS011;45044;41.572;24.730;2022-08-02T09:17:15;2.92;;;1.50;;
59273;SDS011;45044;41.572;24.730;2022-08-02T09:19:43;1.92;;;1.70;;
59273;SDS011;45044;41.572;24.730;2022-08-02T09:22:12;2.20;;;1.40;;
59273;SDS011;45044;41.572;24.730;2022-08-02T09:24:44;1.65;;;1.40;;
59273;SDS011;45044;41.572;24.730;2022-08-02T09:27:13;2.30;;;1.55;;
59273;SDS011;45044;41.572;24.730;2022-08-02T09:29:48;2.00;;;1.55;;
59273;SDS011;45044;41.572;24.730;2022-08-02T09:32:44;3.25;;;1.50;;
59273;SDS011;45044;41.572;24.730;2022-08-02T09:35:13;2.88;;;1.50;;
59273;SDS011;45044;41.572;24.730;2022-08-02T09:38:17;2.65;;;1.40;;
59273;SDS011;45044;41.572;24.730;2022-08-02T09:40:45;1.60;;;1.40;;
59273;SDS011;45044;41.572;24.730;2022-08-02T09:43:15;4.68;;;2.00;;
59273;SDS011;45044;41.572;24.730;2022-08-02T09:45:43;1.35;;;1.23;;
59273;SDS011;45044;41.572;24.730;2022-08-02T09:48:12;2.75;;;1.80;;
59273;SDS011;45044;41.572;24.730;2022-08-02T09:50:41;2.17;;;1.50;;
59273;SDS011;45044;41.572;24.730;2022-08-02T09:53:11;2.28;;;1.50;;
59273;SDS011;45044;41.572;24.730;2022-08-02T09:55:40;1.92;;;1.48;;
59273;SDS011;45044;41.572;24.730;2022-08-02T09:58:17;1.45;;;1.35;;
59273;SDS011;45044;41.572;24.730;2022-08-02T10:00:54;2.70;;;1.85;;
59273;SDS011;45044;41.572;24.730;2022-08-02T10:03:22;1.88;;;1.65;;
59273;SDS011;45044;41.572;24.730;2022-08-02T10:05:57;1.63;;;1.42;;
59273;SDS011;45044;41.572;24.730;2022-08-02T10:08:28;3.13;;;1.73;;
59273;SDS011;45044;41.572;24.730;2022-08-02T10:10:59;2.22;;;1.65;;
59273;SDS011;45044;41.572;24.730;2022-08-02T10:13:30;2.30;;;1.60;;
59273;SDS011;45044;41.572;24.730;2022-08-02T10:16:04;2.42;;;1.77;;
59273;SDS011;45044;41.572;24.730;2022-08-02T10:18:32;2.38;;;1.60;;
59273;SDS011;45044;41.572;24.730;2022-08-02T10:21:06;1.98;;;1.45;;
59273;SDS011;45044;41.572;24.730;2022-08-02T10:23:42;2.50;;;1.70;;
59273;SDS011;45044;41.572;24.730;2022-08-02T10:26:13;2.28;;;2.05;;
59273;SDS011;45044;41.572;24.730;2022-08-02T10:28:42;1.98;;;1.73;;
59273;SDS011;45044;41.572;24.730;2022-08-02T10:31:12;1.90;;;1.50;;
59273;SDS011;45044;41.572;24.730;2022-08-02T10:33:42;1.88;;;1.60;;
59273;SDS011;45044;41.572;24.730;2022-08-02T10:36:15;2.75;;;1.67;;
59273;SDS011;45044;41.572;24.730;2022-08-02T10:38:44;3.35;;;2.20;;
59273;SDS011;45044;41.572;24.730;2022-08-02T10:41:12;1.80;;;1.50;;
59273;SDS011;45044;41.572;24.730;2022-08-02T10:43:43;4.00;;;2.00;;
59273;SDS011;45044;41.572;24.730;2022-08-02T10:49:20;2.80;;;1.70;;
59273;SDS011;45044;41.572;24.730;2022-08-02T10:54:31;2.05;;;1.85;;
59273;SDS011;45044;41.572;24.730;2022-08-02T10:56:58;2.58;;;1.58;;
59273;SDS011;45044;41.572;24.730;2022-08-02T10:59:33;2.20;;;1.92;;
59273;SDS011;45044;41.572;24.730;2022-08-02T11:02:04;2.05;;;1.70;;
59273;SDS011;45044;41.572;24.730;2022-08-02T11:07:17;2.15;;;1.90;;
59273;SDS011;45044;41.572;24.730;2022-08-02T11:09:49;2.80;;;1.90;;
59273;SDS011;45044;41.572;24.730;2022-08-02T11:12:17;3.40;;;1.98;;
59273;SDS011;45044;41.572;24.730;2022-08-02T11:14:57;2.72;;;1.80;;
59273;SDS011;45044;41.572;24.730;2022-08-02T11:17:24;2.72;;;1.90;;
59273;SDS011;45044;41.572;24.730;2022-08-02T11:22:39;2.20;;;1.80;;
59273;SDS011;45044;41.572;24.730;2022-08-02T11:28:07;2.78;;;1.90;;
59273;SDS011;45044;41.572;24.730;2022-08-02T11:30:36;4.05;;;1.85;;
59273;SDS011;45044;41.572;24.730;2022-08-02T11:33:03;3.10;;;1.80;;
59273;SDS011;45044;41.572;24.730;2022-08-02T11:35:31;4.35;;;2.15;;
59273;SDS011;45044;41.572;24.730;2022-08-02T11:38:11;3.70;;;2.00;;
59273;SDS011;45044;41.572;24.730;2022-08-02T11:40:43;2.07;;;1.90;;
59273;SDS011;45044;41.572;24.730;2022-08-02T11:43:18;2.00;;;1.67;;
59273;SDS011;45044;41.572;24.730;2022-08-02T11:48:12;3.00;;;2.10;;
59273;SDS011;45044;41.572;24.730;2022-08-02T11:50:39;3.30;;;1.67;;
59273;SDS011;45044;41.572;24.730;2022-08-02T11:53:12;2.58;;;1.90;;
59273;SDS011;45044;41.572;24.730;2022-08-02T11:55:42;1.67;;;1.50;;
59273;SDS011;45044;41.572;24.730;2022-08-02T11:58:08;4.30;;;1.80;;
59273;SDS011;45044;41.572;24.730;2022-08-02T12:00:37;3.13;;;2.05;;
59273;SDS011;45044;41.572;24.730;2022-08-02T12:03:04;2.22;;;2.00;;
59273;SDS011;45044;41.572;24.730;2022-08-02T12:05:31;2.65;;;1.80;;
59273;SDS011;45044;41.572;24.730;2022-08-02T12:08:20;3.08;;;2.00;;
59273;SDS011;45044;41.572;24.730;2022-08-02T12:10:50;2.20;;;1.73;;
59273;SDS011;45044;41.572;24.730;2022-08-02T12:13:18;3.45;;;2.13;;
59273;SDS011;45044;41.572;24.730;2022-08-02T12:15:46;2.03;;;1.65;;
59273;SDS011;45044;41.572;24.730;2022-08-02T12:18:33;2.65;;;1.70;;
59273;SDS011;45044;41.572;24.730;2022-08-02T12:21:21;2.92;;;2.00;;
59273;SDS011;45044;41.572;24.730;2022-08-02T12:23:52;2.88;;;1.88;;
59273;SDS011;45044;41.572;24.730;2022-08-02T12:26:25;2.42;;;1.85;;
59273;SDS011;45044;41.572;24.730;2022-08-02T12:28:54;3.35;;;1.85;;
59273;SDS011;45044;41.572;24.730;2022-08-02T12:31:37;2.25;;;1.80;;
59273;SDS011;45044;41.572;24.730;2022-08-02T12:34:23;2.78;;;2.00;;
59273;SDS011;45044;41.572;24.730;2022-08-02T12:37:04;4.40;;;2.17;;
59273;SDS011;45044;41.572;24.730;2022-08-02T12:39:38;2.30;;;1.90;;
59273;SDS011;45044;41.572;24.730;2022-08-02T12:42:10;2.97;;;2.10;;
59273;SDS011;45044;41.572;24.730;2022-08-02T12:44:56;3.85;;;2.17;;
59273;SDS011;45044;41.572;24.730;2022-08-02T12:47:25;2.60;;;1.95;;
59273;SDS011;45044;41.572;24.730;2022-08-02T12:50:14;2.30;;;2.03;;
59273;SDS011;45044;41.572;24.730;2022-08-02T12:52:41;2.65;;;1.70;;
59273;SDS011;45044;41.572;24.730;2022-08-02T12:55:16;2.58;;;2.05;;
59273;SDS011;45044;41.572;24.730;2022-08-02T12:58:11;2.47;;;2.00;;
59273;SDS011;45044;41.572;24.730;2022-08-02T13:00:38;2.97;;;2.10;;
59273;SDS011;45044;41.572;24.730;2022-08-02T13:03:05;2.67;;;2.13;;
59273;SDS011;45044;41.572;24.730;2022-08-02T13:05:53;2.55;;;1.90;;
59273;SDS011;45044;41.572;24.730;2022-08-02T13:08:24;2.72;;;2.13;;
59273;SDS011;45044;41.572;24.730;2022-08-02T13:10:53;2.58;;;1.98;;
59273;SDS011;45044;41.572;24.730;2022-08-02T13:13:20;2.22;;;1.83;;
59273;SDS011;45044;41.572;24.730;2022-08-02T13:15:47;3.25;;;1.92;;
59273;SDS011;45044;41.572;24.730;2022-08-02T13:18:16;3.03;;;2.00;;
59273;SDS011;45044;41.572;24.730;2022-08-02T13:20:43;2.97;;;1.85;;
59273;SDS011;45044;41.572;24.730;2022-08-02T13:23:11;4.20;;;1.98;;
59273;SDS011;45044;41.572;24.730;2022-08-02T13:25:47;2.60;;;1.95;;
59273;SDS011;45044;41.572;24.730;2022-08-02T13:28:18;3.17;;;1.90;;
59273;SDS011;45044;41.572;24.730;2022-08-02T13:30:45;4.13;;;2.20;;
59273;SDS011;45044;41.572;24.730;2022-08-02T13:33:13;3.15;;;2.10;;
59273;SDS011;45044;41.572;24.730;2022-08-02T13:35:41;2.10;;;1.90;;
59273;SDS011;45044;41.572;24.730;2022-08-02T13:38:09;2.35;;;1.70;;
59273;SDS011;45044;41.572;24.730;2022-08-02T13:40:36;2.00;;;1.73;;
59273;SDS011;45044;41.572;24.730;2022-08-02T13:43:30;2.35;;;1.55;;
59273;SDS011;45044;41.572;24.730;2022-08-02T13:46:16;2.05;;;1.60;;
59273;SDS011;45044;41.572;24.730;2022-08-02T13:48:54;2.83;;;1.88;;
59273;SDS011;45044;41.572;24.730;2022-08-02T13:51:22;3.30;;;1.95;;
59273;SDS011;45044;41.572;24.730;2022-08-02T13:53:48;3.20;;;1.70;;
59273;SDS011;45044;41.572;24.730;2022-08-02T13:56:15;2.03;;;1.65;;
59273;SDS011;45044;41.572;24.730;2022-08-02T13:58:42;2.05;;;1.75;;
59273;SDS011;45044;41.572;24.730;2022-08-02T14:01:08;2.92;;;1.70;;
59273;SDS011;45044;41.572;24.730;2022-08-02T14:03:37;2.25;;;1.63;;
59273;SDS011;45044;41.572;24.730;2022-08-02T14:06:24;2.38;;;1.55;;
59273;SDS011;45044;41.572;24.730;2022-08-02T14:08:51;2.30;;;1.77;;
59273;SDS011;45044;41.572;24.730;2022-08-02T14:11:18;2.08;;;1.75;;
59273;SDS011;45044;41.572;24.730;2022-08-02T14:13:45;2.85;;;1.52;;
59273;SDS011;45044;41.572;24.730;2022-08-02T14:16:12;3.63;;;1.83;;
59273;SDS011;45044;41.572;24.730;2022-08-02T14:18:38;2.65;;;1.70;;
59273;SDS011;45044;41.572;24.730;2022-08-02T14:21:08;3.35;;;2.10;;
59273;SDS011;45044;41.572;24.730;2022-08-02T14:23:35;2.90;;;2.00;;
59273;SDS011;45044;41.572;24.730;2022-08-02T14:26:16;2.35;;;2.10;;
59273;SDS011;45044;41.572;24.730;2022-08-02T14:28:53;2.33;;;1.55;;
59273;SDS011;45044;41.572;24.730;2022-08-02T14:31:20;2.70;;;2.00;;
59273;SDS011;45044;41.572;24.730;2022-08-02T14:33:47;2.60;;;1.58;;
59273;SDS011;45044;41.572;24.730;2022-08-02T14:36:14;2.45;;;1.60;;
59273;SDS011;45044;41.572;24.730;2022-08-02T14:38:53;3.75;;;1.60;;
59273;SDS011;45044;41.572;24.730;2022-08-02T14:41:20;2.72;;;1.42;;
59273;SDS011;45044;41.572;24.730;2022-08-02T14:43:47;3.20;;;1.65;;
59273;SDS011;45044;41.572;24.730;2022-08-02T14:46:36;1.95;;;1.45;;
59273;SDS011;45044;41.572;24.730;2022-08-02T14:49:09;2.20;;;1.70;;
59273;SDS011;45044;41.572;24.730;2022-08-02T14:51:50;1.80;;;1.48;;
59273;SDS011;45044;41.572;24.730;2022-08-02T14:54:16;2.90;;;1.95;;
59273;SDS011;45044;41.572;24.730;2022-08-02T14:56:44;2.58;;;1.10;;
59273;SDS011;45044;41.572;24.730;2022-08-02T14:59:13;2.25;;;1.48;;
59273;SDS011;45044;41.572;24.730;2022-08-02T15:01:40;2.83;;;1.52;;
59273;SDS011;45044;41.572;24.730;2022-08-02T15:04:09;3.13;;;1.70;;
59273;SDS011;45044;41.572;24.730;2022-08-02T15:06:36;2.22;;;1.58;;
59273;SDS011;45044;41.572;24.730;2022-08-02T15:09:03;2.95;;;1.73;;
59273;SDS011;45044;41.572;24.730;2022-08-02T15:11:30;2.80;;;1.45;;
59273;SDS011;45044;41.572;24.730;2022-08-02T15:14:13;4.43;;;1.58;;
59273;SDS011;45044;41.572;24.730;2022-08-02T15:16:41;3.17;;;1.30;;
59273;SDS011;45044;41.572;24.730;2022-08-02T15:19:22;2.50;;;1.50;;
59273;SDS011;45044;41.572;24.730;2022-08-02T15:22:10;2.40;;;1.58;;
59273;SDS011;45044;41.572;24.730;2022-08-02T15:24:41;2.78;;;1.70;;
59273;SDS011;45044;41.572;24.730;2022-08-02T15:27:11;3.38;;;1.80;;
59273;SDS011;45044;41.572;24.730;2022-08-02T15:29:41;2.58;;;1.33;;
59273;SDS011;45044;41.572;24.730;2022-08-02T15:32:08;4.00;;;1.80;;